Yangon Weather at 2PM – 14 JUNE 2012

Updated: 2:00 PM MMT on June 14, 2012
Observed at Yangon, Myanmar
Temperature 91°F / 33°C
Humidity 59%
Dew Point 75°F / 24°C
Wind SW at 6 mph / 9 km/h
Pressure 29.74 in / 1007 hPa (Steady)
Conditions Mostly Cloudy
Visibility 5.0 miles / 8.0 kilometers
UV 8 out of 16
Clouds Mostly Cloudy (BKN) : 1800 ft / 548 m
(FEW) : 2000 ft / 609 m
Mostly Cloudy (BKN) : 11000 ft / 3352 m
Yesterday’s Maximum 82°F / 28°C
Yesterday’s Minimum 79°F / 26°C approx.
Yesterday’s Cooling Degree Days 16 approx.
Sunrise 5:31 AM MMT
Sunset 6:39 PM MMT
Moon Rise 1:27 AM MMT
Moon Set 2:19 PM MMT
Moon Phase Moon Phase
Waning Crescent
Raw METAR METAR VYYY 140730Z 23005G15KT 8000 BKN018 FEW020CB BKN110 33/24 Q1007

You must be logged in to post a comment.